Felton, Pennsylvania
Current Conditions -  °F | °C
As of 9:53 PM on Monday 20 Oct 2014 (Local Time) from KTHV Reporting Station
Overcast Overcast  
Wind Chill: 56°   Ceiling: 7000
Heat Index: 56°   Visibility: 10mi
Dew Point: 46°   Wind: 6mph
Humidity: 69%   Direction: 190°S
Pressure: 29.95"   Gusts: NA
Location:  39.85°N, 76.56°W
Report Text: KTHV 210153Z AUTO 19005KT 10SM OVC070 13/08 A2995 RMK AO2 RAB17E36 SLP144 P0000 T01330078
Loading
Personal Weather Stations






























Interactive Weather Map
Tropical Storm Tracking
New forecast layout! Learn more

10-Day Weather Forecast

Advertisements
Track Severe Weather on mobile